»·PEaware :: N212CA KSEA-CYVR

N212CA :: KSEA-CYVR

FLIGHT INFORMATION

Flight Status: Arrived
Operator: Privately registered:
United States
More flights under this callsign
Pilot: Tom Z. (16124)
Aircraft: CESSNA 404 TITAN
(C404)
More flights by this aircraft type
Origin: KSEA Seattle-Tacoma Intl
United States
Destination: CYVR Vancouver Intl
Canada
More flights between these airports :: More routes between these airports
Route: LOFAL V495 CONDI V338 YVR
File this flight plan on PilotEdge
Remarks:
Altitude:
(Current/Filed)
11,000ft
Speed:
(Current/Filed)
150kts
Departed: 22-Jul-17 01:57 AM
Arrived: 22-Jul-17 02:48 AM
Distance/Time
Traveled:
111nm/0:51
Distance/Time
To Go:
Arrived

Flight Plot

Page will automatically refresh every two minutes.

Flight plan parsing failed; only flown route is shown


Map Options




Map Legend


Flown Route
Filed Route
Departure Airport
Arrival Airport
Navaid (VOR, NDB)
Fix

Horizontal Profiles

Position Reports

Time Latitude Longitude Heading Altitude Ground
Speed
22-Jul-17 01:44 47.439175 -122.315187 55 350ft 0kts
22-Jul-17 01:45 47.439175 -122.315187 55 350ft 0kts
22-Jul-17 01:46 47.439175 -122.315187 55 350ft 0kts
22-Jul-17 01:47 47.439175 -122.315187 55 350ft 0kts
22-Jul-17 01:48 47.439175 -122.315187 55 350ft 0kts
22-Jul-17 01:49 47.439175 -122.315187 55 350ft 0kts
22-Jul-17 01:50 47.439175 -122.315187 55 350ft 0kts
22-Jul-17 01:51 47.439282 -122.314863 77 352ft 0kts
22-Jul-17 01:52 47.440649 -122.313613 1 359ft 13kts
22-Jul-17 01:53 47.445341 -122.313586 0 375ft 18kts
22-Jul-17 01:54 47.450004 -122.313524 0 399ft 17kts
22-Jul-17 01:55 47.456004 -122.313460 0 397ft 25kts
22-Jul-17 01:56 47.462402 -122.313407 4 383ft 0kts
22-Jul-17 01:57 47.463662 -122.315258 270 355ft 19kts
22-Jul-17 01:58 47.463680 -122.316541 271 340ft 0kts
22-Jul-17 01:59 47.463682 -122.316660 270 339ft 2kts
22-Jul-17 02:00 47.450226 -122.318302 177 631ft 112kts
22-Jul-17 02:01 47.412801 -122.313848 174 2021ft 152kts
22-Jul-17 02:02 47.393631 -122.357641 282 3635ft 168kts
22-Jul-17 02:03 47.421190 -122.399303 352 5330ft 173kts
22-Jul-17 02:04 47.464156 -122.401631 352 6601ft 156kts
22-Jul-17 02:05 47.503707 -122.404438 349 8053ft 137kts
22-Jul-17 02:06 47.542107 -122.408384 346 9502ft 140kts
22-Jul-17 02:07 47.581383 -122.414098 345 10905ft 143kts
22-Jul-17 02:08 47.620564 -122.421294 344 12162ft 153kts
22-Jul-17 02:09 47.672858 -122.435464 343 11023ft 205kts
22-Jul-17 02:10 47.707086 -122.482671 295 10989ft 177kts
22-Jul-17 02:11 47.730501 -122.548353 300 10985ft 179kts
22-Jul-17 02:12 47.766822 -122.599377 319 10986ft 182kts
22-Jul-17 02:13 47.808948 -122.641015 322 10986ft 182kts
22-Jul-17 02:14 47.851791 -122.681012 323 10989ft 182kts
22-Jul-17 02:15 47.895032 -122.719954 323 10989ft 183kts
22-Jul-17 02:16 47.938567 -122.759195 323 10989ft 183kts
22-Jul-17 02:17 47.981987 -122.798375 323 10989ft 183kts
22-Jul-17 02:18 48.025353 -122.837597 323 10989ft 182kts
22-Jul-17 02:19 48.068813 -122.876989 323 10988ft 182kts
22-Jul-17 02:20 48.111629 -122.915893 323 10989ft 182kts
22-Jul-17 02:21 48.154931 -122.955296 323 10989ft 182kts
22-Jul-17 02:22 48.182706 -122.980612 323 10988ft 182kts
22-Jul-17 02:23 48.225855 -123.020000 323 10990ft 182kts
22-Jul-17 02:24 48.268999 -123.059467 323 10988ft 182kts
22-Jul-17 02:25 48.311667 -123.098589 323 10988ft 181kts
22-Jul-17 02:26 48.354763 -123.138168 323 10988ft 181kts
22-Jul-17 02:27 48.397822 -123.177788 323 10988ft 181kts
22-Jul-17 02:28 48.440823 -123.217449 324 10949ft 183kts
22-Jul-17 02:29 48.484574 -123.257876 324 10814ft 186kts
22-Jul-17 02:30 48.528193 -123.298250 324 10798ft 183kts
22-Jul-17 02:31 48.572104 -123.335861 352 10790ft 190kts
22-Jul-17 02:32 48.624956 -123.319095 7 10798ft 196kts
22-Jul-17 02:33 48.678414 -123.299381 8 10594ft 204kts
22-Jul-17 02:34 48.735899 -123.277856 9 9785ft 218kts
22-Jul-17 02:35 48.791510 -123.241871 34 8975ft 227kts
22-Jul-17 02:36 48.840997 -123.183148 34 8180ft 226kts
22-Jul-17 02:37 48.890339 -123.125242 34 7399ft 224kts
22-Jul-17 02:38 48.939461 -123.067451 34 6627ft 222kts
22-Jul-17 02:39 48.987930 -123.010290 35 5870ft 221kts
22-Jul-17 02:40 49.036152 -122.953261 35 5121ft 219kts
22-Jul-17 02:41 49.083531 -122.897109 35 4387ft 217kts
22-Jul-17 02:42 49.127942 -122.844314 35 3667ft 197kts
22-Jul-17 02:43 49.168945 -122.834538 285 2899ft 168kts
22-Jul-17 02:44 49.170683 -122.900318 279 2797ft 147kts
22-Jul-17 02:45 49.176433 -122.951798 280 2566ft 102kts
22-Jul-17 02:46 49.180705 -122.988977 281 2066ft 85kts
22-Jul-17 02:47 49.184717 -123.023508 285 1767ft 91kts
22-Jul-17 02:48 49.189808 -123.066745 284 1251ft 103kts
22-Jul-17 02:49 49.194412 -123.106677 284 738ft 90kts
22-Jul-17 02:50 49.198291 -123.143321 284 298ft 85kts
22-Jul-17 02:51 49.202116 -123.174167 283 17ft 28kts
22-Jul-17 02:52 49.201107 -123.180546 214 17ft 10kts
22-Jul-17 02:53 49.199312 -123.173414 124 17ft 19kts
22-Jul-17 02:54 49.199225 -123.172555 196 17ft 0kts
22-Jul-17 02:55 49.199225 -123.172555 196 17ft 0kts
22-Jul-17 02:56 49.199225 -123.172555 196 17ft 0kts
22-Jul-17 02:57 49.199225 -123.172555 196 17ft 0kts
22-Jul-17 02:58 49.199225 -123.172555 196 17ft 0kts
22-Jul-17 02:59 49.199225 -123.172555 196 17ft 0kts
22-Jul-17 03:00 49.199225 -123.172555 196 17ft 0kts
22-Jul-17 03:01 49.199225 -123.172555 196 17ft 0kts
22-Jul-17 03:02 49.199225 -123.172555 196 17ft 0kts
22-Jul-17 03:03 49.199225 -123.172555 196 17ft 0kts
22-Jul-17 03:04 49.199225 -123.172555 196 17ft 0kts
22-Jul-17 03:05 49.199225 -123.172555 196 17ft 0kts

Navigation Log

Ident Type
Flight plan parsing failed, navigation log unavailable